Airfield :
LOGIN :

Register | Disclaimer

   EN    FR    IT 

 










Legend :    VFR   Marginal VFR   IFR   Intensive IFR   Very Intensive IFR
Visi :
Ceiling :
>= 8 km
>= 3000ft
5 to 8 km
1000 to 3000 ft
1500m to 5 km
500 to 1000 ft
800 to 1500m
200 to 500 ft
< 800m
< 200 ft
Symbols :   Thunderstorms  Fog  Heavy snow  Heavy precipitations  Wind > 20 kt
SIGMETs :     Misc.  Thunderstorms  Icing  Turbulence  Mountain Waves  Volcanic Ashes






- Airport Elevation : 416 ft
- IATA code : OVD


LEAS - Asturias

CURRENT METAR :
  • 100930Z 23006KT 200V260 CAVOK 09/02 Q1027 NOSIG

EXPIRED METARs :
  • 100900Z 23005KT 190V290 CAVOK 08/03 Q1027 NOSIG
  • 100830Z 22005KT CAVOK 06/02 Q1027 NOSIG
  • 100800Z 23007KT 200V290 CAVOK 07/02 Q1027 NOSIG
  • 100730Z 22009KT 200V270 CAVOK 07/02 Q1027 NOSIG
  • 100700Z 21005KT 120V240 CAVOK 06/02 Q1027 NOSIG

TAF TAF LEAS
Valid from the 10 at 09:00 until the 11 at 09:00 UTC


100800Z 1009/1109 22009KT 9999 SCT040 TX17/1014Z TN08/1106Z
PROB30
TEMPO 1012/1018 30010KT
BECMG 1022/1101 30010KT
TEMPO 1021/1106 3000 RA BKN010
TEMPO 1100/1109 30015G28KT



MET'MAP, your aeronautical weather chart ! - Copyright ORBIFLY December 2007 - Disclaimer

ORBIFLY MET'MAP TEAM :

Programming & Development : Alexandra Zaïnal
Concept & original design : Baudouin d'Aumeries
Assistance for programming : Marc-Olivier Méhu
Technical & hardware support : Manuel Goepfert

Contact : metmap@orbifly.com




SOURCES & CREDITS :

   NOAA